createdAt,value
2022-09-01T00:02:30.093Z,98650.31
2022-09-01T00:05:37.318Z,98651.19
2022-09-01T00:08:44.367Z,98654.78
2022-09-01T00:11:56.023Z,98649.50
2022-09-01T00:15:03.589Z,98647.88
2022-09-01T00:18:09.770Z,98649.50
2022-09-01T00:21:17.302Z,98647.81
2022-09-01T00:24:23.496Z,98654.97
2022-09-01T00:27:33.322Z,98655.13
2022-09-01T00:30:39.289Z,98649.38
2022-09-01T00:33:46.570Z,98652.50
2022-09-01T00:36:52.799Z,98650.84
2022-09-01T00:39:59.854Z,98649.13
2022-09-01T00:43:18.284Z,98636.69
2022-09-01T00:46:29.070Z,98637.00
2022-09-01T00:49:39.758Z,98632.59
2022-09-01T00:52:51.181Z,98643.88
2022-09-01T00:55:57.456Z,98634.19
2022-09-01T00:59:09.735Z,98634.19
2022-09-01T01:02:15.997Z,98636.06
2022-09-01T01:05:23.568Z,98641.53
2022-09-01T01:08:35.425Z,98633.72
2022-09-01T01:11:45.435Z,98644.47
2022-09-01T01:14:55.267Z,98636.94
2022-09-01T01:18:03.537Z,98641.84
2022-09-01T01:21:34.252Z,98638.81
2022-09-01T01:24:46.504Z,98646.91
2022-09-01T01:27:53.823Z,98637.53
2022-09-01T01:31:05.236Z,98642.78
2022-09-01T01:34:12.400Z,98638.38
2022-09-01T01:37:24.225Z,98642.97
2022-09-01T01:40:33.833Z,98640.63
2022-09-01T01:43:41.004Z,98641.56
2022-09-01T01:46:50.422Z,98645.22
2022-09-01T01:49:57.879Z,98633.00
2022-09-01T01:53:11.315Z,98633.66
2022-09-01T01:56:23.068Z,98641.47
2022-09-01T01:59:30.167Z,98636.41
2022-09-01T02:02:38.608Z,98629.06
2022-09-01T02:05:44.546Z,98624.44
2022-09-01T02:08:52.452Z,98630.56
2022-09-01T02:12:01.410Z,98627.94
2022-09-01T02:15:13.523Z,98623.63
2022-09-01T02:18:21.969Z,98621.72
2022-09-01T02:21:30.867Z,98623.41
2022-09-01T02:24:36.948Z,98625.22
2022-09-01T02:27:49.673Z,98626.03
2022-09-01T02:30:58.014Z,98624.38
2022-09-01T02:34:10.998Z,98621.91
2022-09-01T02:37:17.476Z,98622.28
2022-09-01T02:40:24.514Z,98627.00
2022-09-01T02:43:34.218Z,98627.72
2022-09-01T02:46:42.209Z,98621.72
2022-09-01T02:49:48.363Z,98619.28
2022-09-01T02:52:55.805Z,98621.16
2022-09-01T02:56:03.526Z,98612.34
2022-09-01T02:59:15.537Z,98622.69
2022-09-01T03:02:21.821Z,98615.72
2022-09-01T03:05:31.127Z,98615.91
2022-09-01T03:08:39.886Z,98612.53
2022-09-01T03:11:49.243Z,98618.16
2022-09-01T03:14:58.134Z,98618.34
2022-09-01T03:18:06.620Z,98611.41
2022-09-01T03:21:17.325Z,98620.22
2022-09-01T03:24:24.859Z,98620.22
2022-09-01T03:27:31.312Z,98624.00
2022-09-01T03:30:41.887Z,98616.56
2022-09-01T03:33:48.758Z,98619.44
2022-09-01T03:37:07.611Z,98623.03
2022-09-01T03:40:16.207Z,98624.06
2022-09-01T03:43:34.519Z,98623.03
2022-09-01T03:46:47.015Z,98622.06
2022-09-01T03:49:55.365Z,98628.31
2022-09-01T03:53:03.797Z,98627.44
2022-09-01T03:56:11.737Z,98630.06
2022-09-01T03:59:19.989Z,98628.19
2022-09-01T04:02:31.045Z,98635.22
2022-09-01T04:05:39.521Z,98633.06
2022-09-01T04:08:47.386Z,98636.91
2022-09-01T04:11:53.593Z,98630.69
2022-09-01T04:15:03.539Z,98634.44
2022-09-01T04:18:11.069Z,98628.69
2022-09-01T04:21:17.967Z,98630.66
2022-09-01T04:24:28.333Z,98630.28
2022-09-01T04:27:41.082Z,98632.06
2022-09-01T04:30:48.857Z,98631.88
2022-09-01T04:34:03.572Z,98639.53
2022-09-01T04:37:18.378Z,98639.19
2022-09-01T04:40:25.589Z,98638.81
2022-09-01T04:43:33.837Z,98637.50
2022-09-01T04:46:46.700Z,98644.06
2022-09-01T04:50:00.519Z,98648.06
2022-09-01T04:53:12.342Z,98638.09
2022-09-01T04:56:24.487Z,98649.19
2022-09-01T04:59:47.292Z,98647.13
2022-09-01T05:02:55.236Z,98644.31
2022-09-01T05:06:09.008Z,98648.59
2022-09-01T05:09:17.647Z,98648.44
2022-09-01T05:12:35.776Z,98636.22
2022-09-01T05:15:46.913Z,98650.31
2022-09-01T05:18:57.282Z,98644.00
2022-09-01T05:22:11.136Z,98644.09
2022-09-01T05:25:23.469Z,98640.25
2022-09-01T05:28:30.000Z,98637.97
2022-09-01T05:31:38.039Z,98638.22
2022-09-01T05:34:46.636Z,98638.78
2022-09-01T05:38:01.142Z,98646.69
2022-09-01T05:41:10.124Z,98645.16
2022-09-01T05:44:18.734Z,98633.75
2022-09-01T05:47:26.842Z,98648.00
2022-09-01T05:50:33.756Z,98648.13
2022-09-01T05:53:44.168Z,98643.31
2022-09-01T05:56:53.818Z,98653.66
2022-09-01T06:00:03.850Z,98648.41
2022-09-01T06:03:20.720Z,98651.78
2022-09-01T06:06:43.800Z,98640.19
2022-09-01T06:10:00.782Z,98648.53
2022-09-01T06:13:09.124Z,98650.00
2022-09-01T06:16:20.087Z,98655.44
2022-09-01T06:19:26.258Z,98657.13
2022-09-01T06:22:33.633Z,98652.09
2022-09-01T06:25:46.313Z,98650.38
2022-09-01T06:28:57.173Z,98658.63
2022-09-01T06:32:03.639Z,98661.41
2022-09-01T06:35:12.034Z,98661.41
2022-09-01T06:38:19.391Z,98662.88
2022-09-01T06:41:31.788Z,98662.25
2022-09-01T06:44:41.219Z,98661.06
2022-09-01T06:47:51.294Z,98672.91
2022-09-01T06:51:19.045Z,98677.19
2022-09-01T06:54:31.039Z,98674.41
2022-09-01T07:01:17.595Z,98681.03
2022-09-01T07:04:25.262Z,98682.78
2022-09-01T07:18:32.093Z,98686.38
2022-09-01T07:21:41.951Z,98681.84
2022-09-01T07:25:13.382Z,98688.34
2022-09-01T07:28:40.950Z,98687.41
2022-09-01T07:32:41.227Z,98688.66
2022-09-01T07:35:20.290Z,98692.97
2022-09-01T07:45:48.061Z,98703.06
2022-09-01T07:52:34.051Z,98705.50
2022-09-01T07:55:44.333Z,98703.13
2022-09-01T07:58:53.013Z,98696.84
2022-09-01T08:02:05.967Z,98696.63
2022-09-01T08:05:23.967Z,98690.03
2022-09-01T08:08:31.340Z,98693.81
2022-09-01T08:12:01.157Z,98693.97
2022-09-01T08:15:41.012Z,98697.69
2022-09-01T08:18:48.193Z,98698.84
2022-09-01T08:22:08.049Z,98705.22
2022-09-01T08:25:26.690Z,98707.28
2022-09-01T08:28:34.810Z,98712.38
2022-09-01T08:31:41.994Z,98704.91
2022-09-01T08:34:49.930Z,98707.66
2022-09-01T08:37:58.808Z,98704.41
2022-09-01T08:41:16.975Z,98700.00
2022-09-01T08:44:34.895Z,98707.00
2022-09-01T08:48:04.663Z,98707.25
2022-09-01T08:51:20.565Z,98705.81
2022-09-01T08:54:47.688Z,98708.25
2022-09-01T08:57:59.157Z,98706.56
2022-09-01T09:01:20.254Z,98710.19
2022-09-01T09:04:49.705Z,98715.69
2022-09-01T09:08:33.174Z,98715.66
2022-09-01T09:11:56.687Z,98702.44
2022-09-01T09:15:18.397Z,98709.88
2022-09-01T09:18:54.770Z,98705.06
2022-09-01T09:22:03.825Z,98698.78
2022-09-01T09:25:12.881Z,98704.84
2022-09-01T09:28:22.554Z,98707.75
2022-09-01T09:31:30.710Z,98713.19
2022-09-01T09:34:39.535Z,98703.03
2022-09-01T09:37:46.817Z,98696.91
2022-09-01T09:41:25.672Z,98708.47
2022-09-01T09:44:36.479Z,98687.06
2022-09-01T09:47:46.783Z,98691.97
2022-09-01T09:50:52.949Z,98698.38
2022-09-01T09:54:14.608Z,98700.66
2022-09-01T09:57:22.125Z,98697.88
2022-09-01T10:00:34.552Z,98692.22
2022-09-01T10:03:48.117Z,98688.22
2022-09-01T10:06:55.908Z,98687.19
2022-09-01T10:10:07.231Z,98696.81
2022-09-01T10:13:17.978Z,98702.13
2022-09-01T10:16:32.465Z,98687.19
2022-09-01T10:19:42.580Z,98700.75
2022-09-01T10:22:49.666Z,98693.53
2022-09-01T10:26:05.931Z,98700.75
2022-09-01T10:29:19.156Z,98689.13
2022-09-01T10:32:38.313Z,98687.03
2022-09-01T10:35:51.225Z,98680.81
2022-09-01T10:39:04.353Z,98673.59
2022-09-01T10:42:21.478Z,98684.97
2022-09-01T10:45:38.170Z,98669.41
2022-09-01T10:48:55.689Z,98682.38
2022-09-01T10:52:08.586Z,98686.19
2022-09-01T10:55:24.942Z,98670.34
2022-09-01T11:02:28.085Z,98679.72
2022-09-01T11:06:14.628Z,98674.00
2022-09-01T11:09:25.584Z,98668.34
2022-09-01T11:12:53.438Z,98669.75
2022-09-01T11:16:00.719Z,98661.50
2022-09-01T11:19:27.947Z,98673.28
2022-09-01T11:22:40.725Z,98667.84
2022-09-01T11:26:19.016Z,98674.88
2022-09-01T11:30:01.446Z,98678.41
2022-09-01T11:33:26.421Z,98669.09
2022-09-01T11:36:35.651Z,98673.47
2022-09-01T11:39:52.205Z,98663.63
2022-09-01T11:43:03.605Z,98659.25
2022-09-01T11:46:21.979Z,98675.13
2022-09-01T11:49:33.551Z,98668.25
2022-09-01T11:52:42.416Z,98672.41
2022-09-01T11:55:54.029Z,98668.34
2022-09-01T11:59:00.820Z,98666.06
2022-09-01T12:02:08.794Z,98652.09
2022-09-01T12:05:30.392Z,98649.31
2022-09-01T12:08:39.756Z,98637.91
2022-09-01T12:11:49.273Z,98649.19
2022-09-01T12:15:06.123Z,98655.09
2022-09-01T12:18:19.246Z,98643.13
2022-09-01T12:21:28.095Z,98634.72
2022-09-01T12:24:38.339Z,98649.31
2022-09-01T12:27:47.509Z,98663.25
2022-09-01T12:30:56.003Z,98642.50
2022-09-01T12:34:04.867Z,98646.81
2022-09-01T12:37:15.212Z,98649.03
2022-09-01T12:40:33.936Z,98642.84
2022-09-01T12:43:45.603Z,98652.75
2022-09-01T12:46:51.756Z,98642.81
2022-09-01T12:49:58.597Z,98635.94
2022-09-01T12:53:08.451Z,98650.38
2022-09-01T12:56:34.114Z,98639.25
2022-09-01T12:59:43.146Z,98646.91
2022-09-01T13:02:53.910Z,98642.69
2022-09-01T13:06:03.598Z,98633.41
2022-09-01T13:09:11.135Z,98630.31
2022-09-01T13:12:23.130Z,98634.97
2022-09-01T13:15:33.468Z,98643.84
2022-09-01T13:22:07.423Z,98633.78
2022-09-01T13:25:14.293Z,98641.94
2022-09-01T13:32:15.984Z,98647.41
2022-09-01T13:35:06.657Z,98637.38
2022-09-01T13:38:16.316Z,98621.41
2022-09-01T13:41:23.108Z,98631.25
2022-09-01T13:44:29.365Z,98656.94
2022-09-01T13:48:15.068Z,98640.03
2022-09-01T13:51:16.656Z,98644.59
2022-09-01T13:54:25.351Z,98652.84
2022-09-01T13:57:35.679Z,98639.81
2022-09-01T14:00:46.572Z,98649.03
2022-09-01T14:04:00.197Z,98639.09
2022-09-01T14:07:09.474Z,98640.25
2022-09-01T14:10:15.657Z,98630.81
2022-09-01T14:13:24.089Z,98645.19
2022-09-01T14:16:30.010Z,98652.56
2022-09-01T14:19:39.633Z,98658.41
2022-09-01T14:22:46.604Z,98632.63
2022-09-01T14:25:54.995Z,98635.69
2022-09-01T14:29:01.072Z,98636.00
2022-09-01T14:32:09.258Z,98619.00
2022-09-01T14:35:18.937Z,98618.78
2022-09-01T14:38:25.643Z,98629.59
2022-09-01T14:41:32.111Z,98624.44
2022-09-01T14:44:41.022Z,98631.72
2022-09-01T14:47:47.499Z,98634.97
2022-09-01T14:50:57.082Z,98626.72
2022-09-01T14:54:03.862Z,98630.19
2022-09-01T15:00:39.553Z,98636.44
2022-09-01T15:03:46.767Z,98635.81
2022-09-01T15:06:55.679Z,98630.38
2022-09-01T15:10:04.371Z,98627.38
2022-09-01T15:13:10.627Z,98634.03
2022-09-01T15:16:20.232Z,98634.31
2022-09-01T15:19:26.453Z,98628.47
2022-09-01T15:22:35.989Z,98635.28
2022-09-01T15:25:41.864Z,98634.16
2022-09-01T15:28:49.503Z,98628.59
2022-09-01T15:31:57.271Z,98623.03
2022-09-01T15:35:04.830Z,98629.16
2022-09-01T15:38:17.544Z,98627.53
2022-09-01T15:41:27.309Z,98634.25
2022-09-01T15:44:33.561Z,98632.31
2022-09-01T15:47:44.960Z,98634.78
2022-09-01T15:50:51.600Z,98625.38
2022-09-01T15:54:04.091Z,98636.09
2022-09-01T15:57:10.062Z,98633.09
2022-09-01T16:00:18.169Z,98626.03
2022-09-01T16:03:24.791Z,98629.53
2022-09-01T16:06:32.985Z,98626.25
2022-09-01T16:09:42.477Z,98632.69
2022-09-01T16:12:50.116Z,98634.97
2022-09-01T16:16:08.856Z,98631.34
2022-09-01T16:19:37.217Z,98632.72
2022-09-01T16:22:51.594Z,98633.47
2022-09-01T16:26:03.607Z,98637.31
2022-09-01T16:29:15.824Z,98648.34
2022-09-01T16:32:23.613Z,98652.44
2022-09-01T16:35:40.164Z,98642.97
2022-09-01T16:38:51.808Z,98644.38
2022-09-01T16:42:14.991Z,98646.00
2022-09-01T16:45:45.716Z,98642.81
2022-09-01T16:48:57.232Z,98647.47
2022-09-01T16:52:07.500Z,98642.63
2022-09-01T16:55:24.736Z,98655.22
2022-09-01T16:58:47.428Z,98647.97
2022-09-01T17:02:20.584Z,98656.44
2022-09-01T17:05:30.294Z,98667.19
2022-09-01T17:08:40.470Z,98665.94
2022-09-01T17:11:53.447Z,98675.22
2022-09-01T17:15:07.129Z,98680.06
2022-09-01T17:18:21.924Z,98679.94
2022-09-01T17:21:35.273Z,98668.72
2022-09-01T17:24:44.048Z,98675.22
2022-09-01T17:27:55.910Z,98675.94
2022-09-01T17:31:14.706Z,98676.84
2022-09-01T17:34:33.787Z,98679.69
2022-09-01T17:37:53.404Z,98675.09
2022-09-01T17:41:12.857Z,98678.19
2022-09-01T17:44:31.032Z,98687.91
2022-09-01T17:47:49.049Z,98690.38
2022-09-01T17:51:06.697Z,98692.75
2022-09-01T17:54:25.003Z,98691.00
2022-09-01T17:57:38.741Z,98693.13
2022-09-01T18:00:55.475Z,98691.69
2022-09-01T18:04:42.259Z,98692.75
2022-09-01T18:07:59.833Z,98695.72
2022-09-01T18:11:13.508Z,98700.59
2022-09-01T18:14:24.172Z,98709.59
2022-09-01T18:17:35.631Z,98718.94
2022-09-01T18:20:47.018Z,98720.06
2022-09-01T18:23:58.976Z,98722.19
2022-09-01T18:27:08.183Z,98713.53
2022-09-01T18:30:26.297Z,98716.91
2022-09-01T18:33:53.048Z,98725.81
2022-09-01T18:37:11.007Z,98713.53
2022-09-01T18:40:25.742Z,98721.38
2022-09-01T18:43:39.059Z,98725.03
2022-09-01T18:46:52.565Z,98725.81
2022-09-01T18:50:09.663Z,98727.47
2022-09-01T18:53:38.794Z,98724.84
2022-09-01T18:56:53.111Z,98722.66
2022-09-01T19:00:18.799Z,98717.34
2022-09-01T19:03:32.149Z,98723.72
2022-09-01T19:06:48.316Z,98727.16
2022-09-01T19:10:06.949Z,98733.22
2022-09-01T19:13:28.319Z,98730.56
2022-09-01T19:16:49.275Z,98729.94
2022-09-01T19:20:00.179Z,98729.75
2022-09-01T19:23:13.810Z,98734.72
2022-09-01T19:26:25.301Z,98745.09
2022-09-01T19:29:37.743Z,98738.63
2022-09-01T19:32:43.977Z,98750.03
2022-09-01T19:35:54.801Z,98748.03
2022-09-01T19:39:03.552Z,98752.03
2022-09-01T19:42:19.156Z,98758.56
2022-09-01T19:45:30.995Z,98746.75
2022-09-01T19:48:44.858Z,98743.94
2022-09-01T19:51:58.782Z,98752.38
2022-09-01T19:55:14.732Z,98747.47
2022-09-01T19:58:27.149Z,98761.06
2022-09-01T20:01:43.311Z,98759.72
2022-09-01T20:04:57.078Z,98753.97
2022-09-01T20:08:09.583Z,98764.28
2022-09-01T20:11:20.563Z,98761.94
2022-09-01T20:14:48.519Z,98765.72
2022-09-01T20:18:00.835Z,98749.53
2022-09-01T20:21:18.821Z,98762.28
2022-09-01T20:24:38.418Z,98756.53
2022-09-01T20:27:56.541Z,98751.66
2022-09-01T20:31:12.454Z,98754.88
2022-09-01T20:34:29.472Z,98751.69
2022-09-01T20:37:39.242Z,98751.88
2022-09-01T20:40:43.812Z,98748.38
2022-09-01T20:43:55.902Z,98759.97
2022-09-01T20:47:08.351Z,98756.59
2022-09-01T20:50:16.425Z,98755.25
2022-09-01T20:53:43.166Z,98755.44
2022-09-01T20:56:55.575Z,98757.69
2022-09-01T21:00:09.910Z,98752.78
2022-09-01T21:03:33.914Z,98763.53
2022-09-01T21:06:55.882Z,98757.59
2022-09-01T21:10:10.685Z,98763.16
2022-09-01T21:13:26.912Z,98761.56
2022-09-01T21:16:42.523Z,98765.97
2022-09-01T21:20:03.857Z,98772.34
2022-09-01T21:23:10.158Z,98761.25
2022-09-01T21:26:17.058Z,98766.53
2022-09-01T21:29:35.445Z,98762.97
2022-09-01T21:32:43.002Z,98762.22
2022-09-01T21:35:51.801Z,98764.00
2022-09-01T21:38:58.741Z,98769.25
2022-09-01T21:42:06.613Z,98767.75
2022-09-01T21:45:16.457Z,98762.75
2022-09-01T21:48:22.641Z,98776.31
2022-09-01T21:51:32.220Z,98774.78
2022-09-01T21:54:38.597Z,98768.38
2022-09-01T21:57:46.376Z,98773.81
2022-09-01T22:00:52.907Z,98765.31
2022-09-01T22:04:00.164Z,98772.56
2022-09-01T22:07:17.163Z,98767.56
2022-09-01T22:10:25.671Z,98758.16
2022-09-01T22:13:31.570Z,98765.47
2022-09-01T22:16:38.426Z,98765.56
2022-09-01T22:19:44.931Z,98764.13
2022-09-01T22:23:03.538Z,98761.50
2022-09-01T22:26:15.437Z,98767.78
2022-09-01T22:29:22.913Z,98758.38
2022-09-01T22:32:32.983Z,98756.91
2022-09-01T22:35:44.097Z,98763.31
2022-09-01T22:38:53.105Z,98768.81
2022-09-01T22:42:00.425Z,98761.19
2022-09-01T22:45:10.091Z,98768.41
2022-09-01T22:48:17.070Z,98766.97
2022-09-01T22:51:23.294Z,98769.84
2022-09-01T22:54:32.805Z,98770.69
2022-09-01T22:57:39.514Z,98772.56
2022-09-01T23:00:49.034Z,98764.59
2022-09-01T23:03:59.675Z,98772.56
2022-09-01T23:07:09.624Z,98757.81
2022-09-01T23:10:18.823Z,98763.94
2022-09-01T23:13:28.568Z,98760.53
2022-09-01T23:16:35.149Z,98757.13
2022-09-01T23:19:41.946Z,98768.59
2022-09-01T23:22:48.891Z,98770.38
2022-09-01T23:25:58.468Z,98769.53
2022-09-01T23:29:08.495Z,98773.09
2022-09-01T23:32:15.261Z,98767.16
2022-09-01T23:35:21.366Z,98766.47
2022-09-01T23:38:29.070Z,98772.75
2022-09-01T23:41:40.068Z,98757.06
2022-09-01T23:44:46.894Z,98759.88
2022-09-01T23:47:52.852Z,98757.25
2022-09-01T23:51:03.563Z,98751.06
2022-09-01T23:54:10.144Z,98751.97
2022-09-01T23:57:19.625Z,98747.66
